LAN114 SYCJ-SVMI
Flight info
| Callsign | LAN114 |
|---|---|
| Flight time | 1h 33m |
| Altitude | 24000 |
| Route | LIKEV G443 AKROK/N0474F340 UG443 CBC NETSI1 |
| Aircraft | A320/M-SDE3FGHIRWY/LB1 |
Departure
| Time | 2026-04-17 21:20 |
|---|---|
| Airport | Cheddi Jagan International Airport (SYCJ) |
Arrival
| Time | 2026-04-17 22:54 |
|---|---|
| Airport | Maiquetía Simón Bolívar International Airport (SVMI) |
| Time | Latitude | Longitude | Altitude | Speed | Heading |
|---|---|---|---|---|---|
| 2026-04-17 20:58 | 6.50308 | -58.25265 | 98 ft | 0 kts | 316° |
| 2026-04-17 21:12 | 6.50295 | -58.25252 | 98 ft | 4 kts | 310° |
| 2026-04-17 21:12 | 6.50279 | -58.25230 | 96 ft | 4 kts | 298° |
| 2026-04-17 21:12 | 6.50270 | -58.25213 | 96 ft | 0 kts | 295° |
| 2026-04-17 21:14 | 6.50266 | -58.25237 | 94 ft | 9 kts | 241° |
| 2026-04-17 21:15 | 6.50221 | -58.25265 | 97 ft | 7 kts | 180° |
| 2026-04-17 21:15 | 6.50182 | -58.25255 | 99 ft | 5 kts | 179° |
| 2026-04-17 21:15 | 6.50139 | -58.25285 | 98 ft | 15 kts | 225° |
| 2026-04-17 21:15 | 6.50029 | -58.25396 | 100 ft | 26 kts | 225° |
| 2026-04-17 21:16 | 6.49903 | -58.25521 | 101 ft | 25 kts | 225° |
| 2026-04-17 21:16 | 6.49784 | -58.25640 | 99 ft | 24 kts | 225° |
| 2026-04-17 21:16 | 6.49676 | -58.25748 | 102 ft | 20 kts | 225° |
| 2026-04-17 21:16 | 6.49585 | -58.25839 | 104 ft | 17 kts | 224° |
| 2026-04-17 21:17 | 6.49508 | -58.25917 | 104 ft | 14 kts | 225° |
| 2026-04-17 21:17 | 6.49442 | -58.25982 | 106 ft | 12 kts | 225° |
| 2026-04-17 21:17 | 6.49390 | -58.26034 | 107 ft | 9 kts | 225° |
| 2026-04-17 21:17 | 6.49351 | -58.26074 | 108 ft | 7 kts | 225° |
| 2026-04-17 21:18 | 6.49323 | -58.26103 | 108 ft | 5 kts | 225° |
| 2026-04-17 21:18 | 6.49304 | -58.26118 | 109 ft | 2 kts | 215° |
| 2026-04-17 21:18 | 6.49297 | -58.26121 | 109 ft | 0 kts | 206° |
| 2026-04-17 21:19 | 6.49295 | -58.26123 | 109 ft | 3 kts | 204° |
| 2026-04-17 21:19 | 6.49239 | -58.26116 | 108 ft | 13 kts | 148° |
| 2026-04-17 21:19 | 6.49221 | -58.26042 | 107 ft | 12 kts | 56° |
| 2026-04-17 21:19 | 6.49302 | -58.25962 | 108 ft | 34 kts | 45° |
| 2026-04-17 21:20 | 6.49651 | -58.25616 | 105 ft | 103 kts | 45° |
| 2026-04-17 21:20 | 6.50297 | -58.24974 | 101 ft | 154 kts | 45° |
| 2026-04-17 21:20 | 6.51101 | -58.24177 | 613 ft | 162 kts | 44° |
| 2026-04-17 21:20 | 6.51885 | -58.23403 | 1384 ft | 157 kts | 45° |
| 2026-04-17 21:21 | 6.52714 | -58.22587 | 1601 ft | 178 kts | 45° |
| 2026-04-17 21:21 | 6.53765 | -58.21825 | 1831 ft | 200 kts | 17° |
| 2026-04-17 21:21 | 6.55227 | -58.21944 | 2023 ft | 231 kts | 334° |
| 2026-04-17 21:21 | 6.56385 | -58.23152 | 2431 ft | 258 kts | 300° |
| 2026-04-17 21:22 | 6.57168 | -58.24830 | 3049 ft | 270 kts | 296° |
| 2026-04-17 21:22 | 6.57666 | -58.25981 | 3585 ft | 273 kts | 296° |
| 2026-04-17 21:22 | 6.58428 | -58.27737 | 4414 ft | 276 kts | 296° |
| 2026-04-17 21:22 | 6.59212 | -58.29505 | 5231 ft | 278 kts | 297° |
| 2026-04-17 21:23 | 6.60026 | -58.31290 | 5979 ft | 283 kts | 297° |
| 2026-04-17 21:23 | 6.60873 | -58.33090 | 6727 ft | 286 kts | 298° |
| 2026-04-17 21:23 | 6.61740 | -58.34904 | 7432 ft | 290 kts | 297° |
| 2026-04-17 21:23 | 6.62624 | -58.36743 | 8145 ft | 294 kts | 297° |
| 2026-04-17 21:24 | 6.63525 | -58.38606 | 8848 ft | 299 kts | 297° |
| 2026-04-17 21:24 | 6.64439 | -58.40498 | 9544 ft | 303 kts | 297° |
| 2026-04-17 21:24 | 6.65366 | -58.42425 | 10092 ft | 313 kts | 297° |
| 2026-04-17 21:24 | 6.66346 | -58.44469 | 10240 ft | 336 kts | 296° |
| 2026-04-17 21:25 | 6.67392 | -58.46654 | 10364 ft | 358 kts | 296° |
| 2026-04-17 21:25 | 6.68500 | -58.48974 | 10496 ft | 377 kts | 296° |
| 2026-04-17 21:25 | 6.69654 | -58.51386 | 10876 ft | 387 kts | 296° |
| 2026-04-17 21:25 | 6.70831 | -58.53843 | 11391 ft | 392 kts | 296° |
| 2026-04-17 21:26 | 6.72024 | -58.56325 | 11914 ft | 396 kts | 296° |
| 2026-04-17 21:26 | 6.73230 | -58.58830 | 12436 ft | 400 kts | 296° |
| 2026-04-17 21:26 | 6.74451 | -58.61365 | 12939 ft | 405 kts | 296° |
| 2026-04-17 21:26 | 6.75680 | -58.63928 | 13454 ft | 409 kts | 296° |
| 2026-04-17 21:27 | 6.76921 | -58.66514 | 13924 ft | 412 kts | 297° |
| 2026-04-17 21:27 | 6.78396 | -58.68990 | 14405 ft | 414 kts | 304° |
| 2026-04-17 21:27 | 6.80011 | -58.71395 | 14921 ft | 415 kts | 304° |
| 2026-04-17 21:27 | 6.81638 | -58.73806 | 15393 ft | 418 kts | 304° |
| 2026-04-17 21:28 | 6.83274 | -58.76227 | 15894 ft | 420 kts | 304° |
| 2026-04-17 21:28 | 6.84919 | -58.78660 | 16398 ft | 421 kts | 304° |
| 2026-04-17 21:28 | 6.86541 | -58.81064 | 16941 ft | 421 kts | 303° |
| 2026-04-17 21:28 | 6.88208 | -58.83537 | 17466 ft | 422 kts | 303° |
| 2026-04-17 21:29 | 6.89857 | -58.85984 | 17962 ft | 423 kts | 303° |
| 2026-04-17 21:29 | 6.91511 | -58.88440 | 18386 ft | 425 kts | 303° |
| 2026-04-17 21:29 | 6.93148 | -58.90873 | 18750 ft | 427 kts | 303° |
| 2026-04-17 21:29 | 6.94813 | -58.93356 | 19101 ft | 429 kts | 303° |
| 2026-04-17 21:30 | 6.96489 | -58.95854 | 19450 ft | 432 kts | 302° |
| 2026-04-17 21:30 | 6.98176 | -58.98367 | 19790 ft | 434 kts | 302° |
| 2026-04-17 21:30 | 6.99872 | -59.00890 | 20114 ft | 437 kts | 302° |
| 2026-04-17 21:30 | 7.01583 | -59.03429 | 20433 ft | 440 kts | 302° |
| 2026-04-17 21:31 | 7.03307 | -59.05985 | 20725 ft | 443 kts | 302° |
| 2026-04-17 21:31 | 7.05040 | -59.08556 | 21030 ft | 445 kts | 302° |
| 2026-04-17 21:31 | 7.06783 | -59.11140 | 21326 ft | 447 kts | 302° |
| 2026-04-17 21:31 | 7.08534 | -59.13739 | 21614 ft | 450 kts | 302° |
| 2026-04-17 21:32 | 7.10292 | -59.16354 | 21897 ft | 452 kts | 302° |
| 2026-04-17 21:32 | 7.12057 | -59.18984 | 22175 ft | 454 kts | 302° |
| 2026-04-17 21:32 | 7.13828 | -59.21626 | 22444 ft | 456 kts | 302° |
| 2026-04-17 21:32 | 7.15608 | -59.24283 | 22704 ft | 459 kts | 302° |
| 2026-04-17 21:33 | 7.17398 | -59.26953 | 22958 ft | 461 kts | 302° |
| 2026-04-17 21:33 | 7.19196 | -59.29627 | 23209 ft | 462 kts | 302° |
| 2026-04-17 21:33 | 7.21002 | -59.32310 | 23460 ft | 464 kts | 302° |
| 2026-04-17 21:33 | 7.22814 | -59.35006 | 23675 ft | 465 kts | 302° |
| 2026-04-17 21:34 | 7.24631 | -59.37704 | 23888 ft | 466 kts | 302° |
| 2026-04-17 21:34 | 7.26449 | -59.40408 | 24101 ft | 467 kts | 302° |
| 2026-04-17 21:34 | 7.30094 | -59.45838 | 24530 ft | 469 kts | 301° |
| 2026-04-17 21:35 | 7.31919 | -59.48561 | 24737 ft | 470 kts | 301° |
| 2026-04-17 21:35 | 7.33748 | -59.51289 | 24937 ft | 471 kts | 302° |
| 2026-04-17 21:35 | 7.35583 | -59.54023 | 25131 ft | 472 kts | 301° |
| 2026-04-17 21:35 | 7.37421 | -59.56767 | 25326 ft | 472 kts | 301° |
| 2026-04-17 21:36 | 7.39235 | -59.59477 | 25519 ft | 473 kts | 301° |
| 2026-04-17 21:36 | 7.41072 | -59.62226 | 25725 ft | 474 kts | 301° |
| 2026-04-17 21:36 | 7.42913 | -59.64980 | 25915 ft | 474 kts | 301° |
| 2026-04-17 21:36 | 7.44757 | -59.67735 | 26092 ft | 475 kts | 301° |
| 2026-04-17 21:37 | 7.46607 | -59.70496 | 26263 ft | 476 kts | 301° |
| 2026-04-17 21:37 | 7.48459 | -59.73260 | 26424 ft | 476 kts | 301° |
| 2026-04-17 21:37 | 7.50315 | -59.76031 | 26593 ft | 477 kts | 301° |
| 2026-04-17 21:37 | 7.52174 | -59.78804 | 26755 ft | 477 kts | 301° |
| 2026-04-17 21:38 | 7.54030 | -59.81573 | 26980 ft | 476 kts | 301° |
| 2026-04-17 21:38 | 7.55884 | -59.84338 | 27211 ft | 475 kts | 301° |
| 2026-04-17 21:38 | 7.57731 | -59.87095 | 27438 ft | 474 kts | 301° |
| 2026-04-17 21:38 | 7.59572 | -59.89847 | 27692 ft | 473 kts | 301° |
| 2026-04-17 21:39 | 7.61407 | -59.92590 | 27958 ft | 471 kts | 301° |
| 2026-04-17 21:39 | 7.63239 | -59.95329 | 28208 ft | 470 kts | 301° |
| 2026-04-17 21:39 | 7.65063 | -59.98057 | 28465 ft | 469 kts | 301° |
| 2026-04-17 21:39 | 7.66886 | -60.00784 | 28715 ft | 468 kts | 301° |
| 2026-04-17 21:40 | 7.68702 | -60.03505 | 28961 ft | 467 kts | 301° |
| 2026-04-17 21:40 | 7.70515 | -60.06219 | 29198 ft | 467 kts | 301° |
| 2026-04-17 21:40 | 7.72328 | -60.08930 | 29453 ft | 466 kts | 301° |
| 2026-04-17 21:40 | 7.74137 | -60.11633 | 29706 ft | 465 kts | 301° |
| 2026-04-17 21:41 | 7.75943 | -60.14331 | 29958 ft | 464 kts | 301° |
| 2026-04-17 21:41 | 7.77743 | -60.17026 | 30171 ft | 463 kts | 300° |
| 2026-04-17 21:41 | 7.79539 | -60.19718 | 30378 ft | 463 kts | 300° |
| 2026-04-17 21:41 | 7.81333 | -60.22413 | 30580 ft | 462 kts | 300° |
| 2026-04-17 21:42 | 7.83123 | -60.25103 | 30787 ft | 462 kts | 300° |
| 2026-04-17 21:42 | 7.84918 | -60.27793 | 30986 ft | 462 kts | 300° |
| 2026-04-17 21:42 | 7.86691 | -60.30443 | 31195 ft | 462 kts | 300° |
| 2026-04-17 21:42 | 7.88485 | -60.33124 | 31401 ft | 461 kts | 300° |
| 2026-04-17 21:43 | 7.90273 | -60.35811 | 31612 ft | 461 kts | 300° |
| 2026-04-17 21:43 | 7.92053 | -60.38495 | 31838 ft | 461 kts | 299° |
| 2026-04-17 21:43 | 7.93832 | -60.41180 | 32071 ft | 460 kts | 299° |
| 2026-04-17 21:43 | 7.95608 | -60.43863 | 32301 ft | 459 kts | 299° |
| 2026-04-17 21:44 | 7.97377 | -60.46541 | 32536 ft | 459 kts | 299° |
| 2026-04-17 21:44 | 7.99145 | -60.49219 | 32762 ft | 458 kts | 299° |
| 2026-04-17 21:44 | 8.00911 | -60.51887 | 33005 ft | 457 kts | 299° |
| 2026-04-17 21:44 | 8.02681 | -60.54556 | 33242 ft | 457 kts | 299° |
| 2026-04-17 21:45 | 8.04445 | -60.57214 | 33479 ft | 456 kts | 299° |
| 2026-04-17 21:45 | 8.06211 | -60.59871 | 33711 ft | 456 kts | 299° |
| 2026-04-17 21:45 | 8.07974 | -60.62532 | 33855 ft | 457 kts | 299° |
| 2026-04-17 21:46 | 8.11518 | -60.67894 | 33870 ft | 460 kts | 299° |
| 2026-04-17 21:46 | 8.15070 | -60.73272 | 33869 ft | 461 kts | 299° |
| 2026-04-17 21:47 | 8.18626 | -60.78645 | 33869 ft | 459 kts | 299° |
| 2026-04-17 21:47 | 8.22171 | -60.84000 | 33873 ft | 459 kts | 299° |
| 2026-04-17 21:48 | 8.25713 | -60.89359 | 33873 ft | 459 kts | 299° |
| 2026-04-17 21:48 | 8.29250 | -60.94720 | 33878 ft | 459 kts | 299° |
| 2026-04-17 21:49 | 8.32783 | -61.00073 | 33887 ft | 458 kts | 299° |
| 2026-04-17 21:49 | 8.36320 | -61.05424 | 33900 ft | 458 kts | 298° |
| 2026-04-17 21:50 | 8.39850 | -61.10767 | 33905 ft | 457 kts | 298° |
| 2026-04-17 21:50 | 8.43370 | -61.16095 | 33902 ft | 455 kts | 298° |
| 2026-04-17 21:51 | 8.46879 | -61.21412 | 33900 ft | 455 kts | 298° |
| 2026-04-17 21:51 | 8.50365 | -61.26684 | 33897 ft | 454 kts | 298° |
| 2026-04-17 21:52 | 8.53879 | -61.31992 | 33895 ft | 454 kts | 298° |
| 2026-04-17 21:52 | 8.57392 | -61.37292 | 33903 ft | 454 kts | 298° |
| 2026-04-17 21:53 | 8.60900 | -61.42592 | 33901 ft | 454 kts | 298° |
| 2026-04-17 21:53 | 8.64400 | -61.47900 | 33895 ft | 454 kts | 298° |
| 2026-04-17 21:54 | 8.67899 | -61.53206 | 33901 ft | 454 kts | 298° |
| 2026-04-17 21:54 | 8.71401 | -61.58514 | 33896 ft | 454 kts | 298° |
| 2026-04-17 21:55 | 8.74903 | -61.63821 | 33894 ft | 454 kts | 298° |
| 2026-04-17 21:55 | 8.78409 | -61.69129 | 33892 ft | 454 kts | 298° |
| 2026-04-17 21:56 | 8.81916 | -61.74433 | 33875 ft | 454 kts | 298° |
| 2026-04-17 21:56 | 8.85416 | -61.79738 | 33885 ft | 453 kts | 298° |
| 2026-04-17 21:57 | 8.88911 | -61.85042 | 33869 ft | 453 kts | 298° |
| 2026-04-17 21:57 | 8.92407 | -61.90345 | 33870 ft | 453 kts | 298° |
| 2026-04-17 21:58 | 8.95880 | -61.95620 | 33856 ft | 454 kts | 298° |
| 2026-04-17 21:58 | 8.99411 | -62.00978 | 33854 ft | 455 kts | 298° |
| 2026-04-17 21:59 | 9.02921 | -62.06309 | 33852 ft | 456 kts | 298° |
| 2026-04-17 21:59 | 9.06412 | -62.11618 | 33854 ft | 457 kts | 298° |
| 2026-04-17 22:00 | 9.09940 | -62.16974 | 33855 ft | 458 kts | 298° |
| 2026-04-17 22:00 | 9.13461 | -62.22341 | 33863 ft | 458 kts | 298° |
| 2026-04-17 22:01 | 9.16991 | -62.27723 | 33859 ft | 460 kts | 298° |
| 2026-04-17 22:01 | 9.20537 | -62.33121 | 33857 ft | 461 kts | 298° |
| 2026-04-17 22:02 | 9.24095 | -62.38524 | 33859 ft | 462 kts | 298° |
| 2026-04-17 22:02 | 9.27654 | -62.43939 | 33864 ft | 462 kts | 298° |
| 2026-04-17 22:03 | 9.31212 | -62.49356 | 33867 ft | 462 kts | 298° |
| 2026-04-17 22:03 | 9.34768 | -62.54781 | 33872 ft | 462 kts | 298° |
| 2026-04-17 22:04 | 9.38319 | -62.60205 | 33877 ft | 462 kts | 298° |
| 2026-04-17 22:04 | 9.41865 | -62.65624 | 33886 ft | 462 kts | 298° |
| 2026-04-17 22:05 | 9.45411 | -62.71050 | 33878 ft | 462 kts | 298° |
| 2026-04-17 22:05 | 9.48966 | -62.76480 | 33874 ft | 463 kts | 298° |
| 2026-04-17 22:06 | 9.52522 | -62.81913 | 33870 ft | 463 kts | 298° |
| 2026-04-17 22:06 | 9.56077 | -62.87346 | 33873 ft | 463 kts | 297° |
| 2026-04-17 22:07 | 9.59628 | -62.92782 | 33877 ft | 463 kts | 297° |
| 2026-04-17 22:07 | 9.63181 | -62.98218 | 33876 ft | 462 kts | 297° |
| 2026-04-17 22:08 | 9.66729 | -63.03651 | 33876 ft | 462 kts | 297° |
| 2026-04-17 22:08 | 9.70283 | -63.09084 | 33876 ft | 462 kts | 297° |
| 2026-04-17 22:09 | 9.73692 | -63.14583 | 33891 ft | 456 kts | 289° |
| 2026-04-17 22:09 | 9.75613 | -63.20585 | 33891 ft | 445 kts | 278° |
| 2026-04-17 22:10 | 9.77081 | -63.26636 | 33892 ft | 445 kts | 278° |
| 2026-04-17 22:10 | 9.78566 | -63.32729 | 33891 ft | 445 kts | 278° |
| 2026-04-17 22:11 | 9.80039 | -63.38825 | 33900 ft | 445 kts | 278° |
| 2026-04-17 22:11 | 9.81513 | -63.44923 | 33899 ft | 445 kts | 278° |
| 2026-04-17 22:12 | 9.82750 | -63.50038 | 33903 ft | 446 kts | 278° |
| 2026-04-17 22:12 | 9.84218 | -63.56106 | 33903 ft | 446 kts | 278° |
| 2026-04-17 22:13 | 9.85697 | -63.62218 | 33907 ft | 446 kts | 278° |
| 2026-04-17 22:13 | 9.87169 | -63.68337 | 33909 ft | 447 kts | 278° |
| 2026-04-17 22:14 | 9.88638 | -63.74457 | 33920 ft | 447 kts | 278° |
| 2026-04-17 22:14 | 9.90109 | -63.80583 | 33920 ft | 447 kts | 278° |
| 2026-04-17 22:15 | 9.91581 | -63.86706 | 33936 ft | 447 kts | 278° |
| 2026-04-17 22:15 | 9.93053 | -63.92833 | 33935 ft | 447 kts | 278° |
| 2026-04-17 22:16 | 9.94530 | -63.98956 | 33934 ft | 447 kts | 278° |
| 2026-04-17 22:16 | 9.96000 | -64.05087 | 33940 ft | 447 kts | 278° |
| 2026-04-17 22:17 | 9.97467 | -64.11211 | 33942 ft | 446 kts | 278° |
| 2026-04-17 22:17 | 9.98926 | -64.17322 | 33943 ft | 445 kts | 278° |
| 2026-04-17 22:18 | 10.00384 | -64.23423 | 33945 ft | 445 kts | 278° |
| 2026-04-17 22:18 | 10.01837 | -64.29517 | 33929 ft | 444 kts | 278° |
| 2026-04-17 22:19 | 10.03291 | -64.35608 | 33928 ft | 444 kts | 278° |
| 2026-04-17 22:19 | 10.04733 | -64.41696 | 33911 ft | 443 kts | 278° |
| 2026-04-17 22:20 | 10.06173 | -64.47732 | 33910 ft | 443 kts | 278° |
| 2026-04-17 22:20 | 10.07624 | -64.53814 | 33900 ft | 443 kts | 278° |
| 2026-04-17 22:21 | 10.09074 | -64.59896 | 33899 ft | 443 kts | 278° |
| 2026-04-17 22:21 | 10.10521 | -64.65981 | 33897 ft | 443 kts | 278° |
| 2026-04-17 22:22 | 10.12258 | -64.72010 | 33900 ft | 448 kts | 283° |
| 2026-04-17 22:22 | 10.14295 | -64.77981 | 33893 ft | 448 kts | 283° |
| 2026-04-17 22:23 | 10.16333 | -64.83954 | 33895 ft | 448 kts | 283° |
| 2026-04-17 22:23 | 10.18379 | -64.89929 | 33895 ft | 448 kts | 283° |
| 2026-04-17 22:24 | 10.20420 | -64.95901 | 33897 ft | 448 kts | 283° |
| 2026-04-17 22:24 | 10.22450 | -65.01870 | 33907 ft | 447 kts | 284° |
| 2026-04-17 22:25 | 10.24474 | -65.07830 | 33900 ft | 446 kts | 284° |
| 2026-04-17 22:25 | 10.26498 | -65.13786 | 33899 ft | 446 kts | 284° |
| 2026-04-17 22:26 | 10.28522 | -65.19740 | 33911 ft | 446 kts | 284° |
| 2026-04-17 22:26 | 10.30541 | -65.25694 | 33910 ft | 446 kts | 284° |
| 2026-04-17 22:27 | 10.32560 | -65.31647 | 33899 ft | 446 kts | 284° |
| 2026-04-17 22:27 | 10.34587 | -65.37617 | 33883 ft | 448 kts | 284° |
| 2026-04-17 22:28 | 10.36617 | -65.43604 | 33882 ft | 449 kts | 284° |
| 2026-04-17 22:28 | 10.38650 | -65.49602 | 33885 ft | 449 kts | 284° |
| 2026-04-17 22:29 | 10.40670 | -65.55561 | 33888 ft | 449 kts | 284° |
| 2026-04-17 22:29 | 10.42708 | -65.61560 | 33886 ft | 449 kts | 283° |
| 2026-04-17 22:30 | 10.44745 | -65.67591 | 33529 ft | 453 kts | 283° |
| 2026-04-17 22:30 | 10.45767 | -65.70623 | 33274 ft | 454 kts | 283° |
| 2026-04-17 22:30 | 10.46793 | -65.73662 | 33020 ft | 455 kts | 283° |
| 2026-04-17 22:30 | 10.47820 | -65.76707 | 32769 ft | 456 kts | 283° |
| 2026-04-17 22:31 | 10.48848 | -65.79752 | 32519 ft | 456 kts | 283° |
| 2026-04-17 22:31 | 10.49877 | -65.82802 | 32274 ft | 457 kts | 283° |
| 2026-04-17 22:31 | 10.50905 | -65.85853 | 32031 ft | 457 kts | 283° |
| 2026-04-17 22:31 | 10.51932 | -65.88912 | 31790 ft | 458 kts | 284° |
| 2026-04-17 22:32 | 10.52962 | -65.91971 | 31552 ft | 458 kts | 284° |
| 2026-04-17 22:32 | 10.53995 | -65.95036 | 31312 ft | 459 kts | 284° |
| 2026-04-17 22:32 | 10.55030 | -65.98106 | 31077 ft | 460 kts | 284° |
| 2026-04-17 22:32 | 10.56066 | -66.01181 | 30853 ft | 460 kts | 284° |
| 2026-04-17 22:33 | 10.57228 | -66.04224 | 30620 ft | 465 kts | 290° |
| 2026-04-17 22:33 | 10.58832 | -66.07095 | 30388 ft | 471 kts | 300° |
| 2026-04-17 22:33 | 10.60756 | -66.09806 | 30163 ft | 473 kts | 301° |
| 2026-04-17 22:33 | 10.62696 | -66.12512 | 29945 ft | 474 kts | 301° |
| 2026-04-17 22:34 | 10.64635 | -66.15225 | 29675 ft | 474 kts | 301° |
| 2026-04-17 22:34 | 10.66566 | -66.17933 | 29033 ft | 473 kts | 301° |
| 2026-04-17 22:34 | 10.68499 | -66.20659 | 27744 ft | 477 kts | 301° |
| 2026-04-17 22:34 | 10.70412 | -66.23362 | 26523 ft | 478 kts | 302° |
| 2026-04-17 22:35 | 10.72356 | -66.26102 | 25355 ft | 477 kts | 302° |
| 2026-04-17 22:35 | 10.74289 | -66.28818 | 24230 ft | 474 kts | 302° |
| 2026-04-17 22:35 | 10.76216 | -66.31518 | 23154 ft | 470 kts | 303° |
| 2026-04-17 22:35 | 10.78087 | -66.34171 | 21900 ft | 455 kts | 300° |
| 2026-04-17 22:36 | 10.79502 | -66.36989 | 20850 ft | 437 kts | 289° |
| 2026-04-17 22:36 | 10.80335 | -66.39882 | 20079 ft | 418 kts | 280° |
| 2026-04-17 22:36 | 10.80647 | -66.42776 | 19322 ft | 411 kts | 271° |
| 2026-04-17 22:36 | 10.80441 | -66.45660 | 18585 ft | 409 kts | 261° |
| 2026-04-17 22:37 | 10.79945 | -66.48521 | 17799 ft | 412 kts | 261° |
| 2026-04-17 22:37 | 10.79448 | -66.51388 | 17058 ft | 411 kts | 261° |
| 2026-04-17 22:37 | 10.78954 | -66.54245 | 16342 ft | 410 kts | 261° |
| 2026-04-17 22:37 | 10.78458 | -66.57113 | 15658 ft | 409 kts | 261° |
| 2026-04-17 22:38 | 10.77963 | -66.59965 | 14977 ft | 409 kts | 261° |
| 2026-04-17 22:38 | 10.77466 | -66.62806 | 14317 ft | 408 kts | 260° |
| 2026-04-17 22:38 | 10.76971 | -66.65642 | 13676 ft | 407 kts | 260° |
| 2026-04-17 22:38 | 10.76481 | -66.68472 | 12989 ft | 405 kts | 260° |
| 2026-04-17 22:39 | 10.75996 | -66.71274 | 12359 ft | 400 kts | 261° |
| 2026-04-17 22:39 | 10.75517 | -66.74049 | 11729 ft | 397 kts | 260° |
| 2026-04-17 22:39 | 10.74585 | -66.79447 | 11092 ft | 372 kts | 260° |
| 2026-04-17 22:40 | 10.74144 | -66.81980 | 10968 ft | 356 kts | 260° |
| 2026-04-17 22:40 | 10.73720 | -66.84409 | 10846 ft | 341 kts | 260° |
| 2026-04-17 22:40 | 10.73311 | -66.86737 | 10732 ft | 328 kts | 260° |
| 2026-04-17 22:40 | 10.72919 | -66.88976 | 10603 ft | 316 kts | 261° |
| 2026-04-17 22:41 | 10.72728 | -66.91156 | 10475 ft | 305 kts | 270° |
| 2026-04-17 22:41 | 10.72735 | -66.93290 | 10262 ft | 299 kts | 270° |
| 2026-04-17 22:41 | 10.72736 | -66.95395 | 10043 ft | 297 kts | 270° |
| 2026-04-17 22:41 | 10.72735 | -66.97490 | 9872 ft | 296 kts | 270° |
| 2026-04-17 22:42 | 10.72730 | -66.99584 | 9758 ft | 296 kts | 270° |
| 2026-04-17 22:42 | 10.72724 | -67.01677 | 9615 ft | 296 kts | 270° |
| 2026-04-17 22:42 | 10.72722 | -67.03769 | 9260 ft | 295 kts | 270° |
| 2026-04-17 22:42 | 10.72720 | -67.05851 | 8867 ft | 294 kts | 270° |
| 2026-04-17 22:43 | 10.72716 | -67.07924 | 8474 ft | 293 kts | 270° |
| 2026-04-17 22:43 | 10.72718 | -67.09988 | 8083 ft | 291 kts | 270° |
| 2026-04-17 22:43 | 10.72732 | -67.12042 | 7721 ft | 289 kts | 270° |
| 2026-04-17 22:43 | 10.72750 | -67.14083 | 7479 ft | 288 kts | 270° |
| 2026-04-17 22:44 | 10.72758 | -67.16114 | 7139 ft | 288 kts | 269° |
| 2026-04-17 22:44 | 10.72742 | -67.18144 | 6542 ft | 286 kts | 268° |
| 2026-04-17 22:44 | 10.72713 | -67.20146 | 6121 ft | 282 kts | 268° |
| 2026-04-17 22:44 | 10.72690 | -67.22136 | 5819 ft | 282 kts | 269° |
| 2026-04-17 22:45 | 10.72690 | -67.24126 | 5585 ft | 281 kts | 269° |
| 2026-04-17 22:45 | 10.72701 | -67.26103 | 5348 ft | 279 kts | 269° |
| 2026-04-17 22:45 | 10.72717 | -67.28073 | 5118 ft | 278 kts | 269° |
| 2026-04-17 22:45 | 10.72733 | -67.30034 | 4877 ft | 277 kts | 269° |
| 2026-04-17 22:46 | 10.72745 | -67.31985 | 4661 ft | 275 kts | 269° |
| 2026-04-17 22:46 | 10.72731 | -67.33923 | 4423 ft | 273 kts | 263° |
| 2026-04-17 22:46 | 10.72118 | -67.35680 | 4198 ft | 268 kts | 233° |
| 2026-04-17 22:46 | 10.70707 | -67.36920 | 3975 ft | 266 kts | 206° |
| 2026-04-17 22:47 | 10.68948 | -67.37452 | 3850 ft | 266 kts | 184° |
| 2026-04-17 22:47 | 10.67131 | -67.37245 | 3729 ft | 264 kts | 161° |
| 2026-04-17 22:47 | 10.65554 | -67.36305 | 3607 ft | 265 kts | 136° |
| 2026-04-17 22:47 | 10.64511 | -67.34781 | 3483 ft | 265 kts | 112° |
| 2026-04-17 22:48 | 10.63913 | -67.33025 | 3373 ft | 267 kts | 109° |
| 2026-04-17 22:48 | 10.63325 | -67.31234 | 3248 ft | 267 kts | 109° |
| 2026-04-17 22:48 | 10.62738 | -67.29443 | 3125 ft | 267 kts | 108° |
| 2026-04-17 22:48 | 10.62150 | -67.27658 | 2997 ft | 266 kts | 109° |
| 2026-04-17 22:49 | 10.61560 | -67.25876 | 2867 ft | 266 kts | 109° |
| 2026-04-17 22:49 | 10.60969 | -67.24099 | 2751 ft | 265 kts | 109° |
| 2026-04-17 22:49 | 10.60379 | -67.22323 | 2623 ft | 264 kts | 109° |
| 2026-04-17 22:49 | 10.59872 | -67.20533 | 2500 ft | 264 kts | 99° |
| 2026-04-17 22:50 | 10.59785 | -67.18677 | 2305 ft | 263 kts | 88° |
| 2026-04-17 22:50 | 10.59836 | -67.16890 | 2039 ft | 241 kts | 88° |
| 2026-04-17 22:50 | 10.59881 | -67.15274 | 1920 ft | 218 kts | 88° |
| 2026-04-17 22:50 | 10.59921 | -67.13803 | 1850 ft | 197 kts | 89° |
| 2026-04-17 22:51 | 10.59955 | -67.12492 | 1735 ft | 175 kts | 89° |
| 2026-04-17 22:51 | 10.59985 | -67.11341 | 1688 ft | 155 kts | 89° |
| 2026-04-17 22:51 | 10.60013 | -67.10277 | 1618 ft | 148 kts | 88° |
| 2026-04-17 22:51 | 10.60041 | -67.09238 | 1552 ft | 146 kts | 89° |
| 2026-04-17 22:52 | 10.60067 | -67.08208 | 1447 ft | 145 kts | 89° |
| 2026-04-17 22:52 | 10.60094 | -67.07186 | 1360 ft | 145 kts | 89° |
| 2026-04-17 22:52 | 10.60123 | -67.06160 | 1192 ft | 145 kts | 88° |
| 2026-04-17 22:52 | 10.60158 | -67.05145 | 985 ft | 143 kts | 88° |
| 2026-04-17 22:53 | 10.60167 | -67.04145 | 829 ft | 143 kts | 91° |
| 2026-04-17 22:53 | 10.60153 | -67.03134 | 633 ft | 143 kts | 89° |
| 2026-04-17 22:53 | 10.60178 | -67.02130 | 462 ft | 142 kts | 86° |
| 2026-04-17 22:53 | 10.60217 | -67.01129 | 273 ft | 141 kts | 87° |
| 2026-04-17 22:54 | 10.60248 | -67.00198 | 227 ft | 113 kts | 88° |
| 2026-04-17 22:54 | 10.60264 | -66.99730 | 213 ft | 18 kts | 89° |
| 2026-04-17 22:54 | 10.60199 | -66.99668 | 211 ft | 12 kts | 179° |
| 2026-04-17 22:54 | 10.60189 | -66.99668 | 211 ft | 0 kts | 178° |
| 2026-04-17 22:55 | 10.60183 | -66.99668 | 212 ft | 6 kts | 179° |
| 2026-04-17 22:55 | 10.60142 | -66.99703 | 216 ft | 9 kts | 250° |
| 2026-04-17 22:55 | 10.60139 | -66.99776 | 222 ft | 12 kts | 269° |
| 2026-04-17 22:56 | 10.60135 | -66.99867 | 227 ft | 12 kts | 265° |
| 2026-04-17 22:56 | 10.60073 | -66.99915 | 229 ft | 16 kts | 176° |
| 2026-04-17 22:56 | 10.59954 | -66.99911 | 230 ft | 14 kts | 179° |
| 2026-04-17 22:56 | 10.59913 | -66.99973 | 230 ft | 11 kts | 269° |
| 2026-04-17 22:57 | 10.59911 | -67.00052 | 231 ft | 15 kts | 268° |
| 2026-04-17 22:57 | 10.59901 | -67.00145 | 233 ft | 7 kts | 231° |
| 2026-04-17 22:57 | 10.59859 | -67.00151 | 232 ft | 6 kts | 179° |
| 2026-04-17 22:57 | 10.59829 | -67.00150 | 232 ft | 0 kts | 178° |